sensor_id;sensor_type;location;lat;lon;timestamp;pressure;altitude;pressure_sealevel;temperature;humidity
61674;BME280;47573;43.832;5.974;2023-02-23T00:03:13;95035.47;;;23.16;74.80
61674;BME280;47573;43.832;5.974;2023-02-23T00:09:55;95032.16;;;23.14;74.75
61674;BME280;47573;43.832;5.974;2023-02-23T00:16:35;95017.72;;;23.13;74.42
61674;BME280;47573;43.832;5.974;2023-02-23T00:23:16;95017.47;;;23.15;74.40
61674;BME280;47573;43.832;5.974;2023-02-23T00:29:58;95008.72;;;23.13;74.66
61674;BME280;47573;43.832;5.974;2023-02-23T00:36:38;95007.09;;;23.12;74.56
61674;BME280;47573;43.832;5.974;2023-02-23T00:43:19;95012.75;;;23.10;74.25
61674;BME280;47573;43.832;5.974;2023-02-23T00:50:02;95004.38;;;23.12;74.29
61674;BME280;47573;43.832;5.974;2023-02-23T00:56:44;95010.50;;;22.86;73.22
61674;BME280;47573;43.832;5.974;2023-02-23T01:03:25;95004.84;;;22.71;73.90
61674;BME280;47573;43.832;5.974;2023-02-23T01:10:07;94999.88;;;22.68;73.48
61674;BME280;47573;43.832;5.974;2023-02-23T01:16:48;94990.91;;;22.67;73.02
61674;BME280;47573;43.832;5.974;2023-02-23T01:23:28;94980.44;;;22.59;73.28
61674;BME280;47573;43.832;5.974;2023-02-23T01:30:12;94975.38;;;22.34;71.99
61674;BME280;47573;43.832;5.974;2023-02-23T01:36:54;94959.72;;;22.42;70.61
61674;BME280;47573;43.832;5.974;2023-02-23T01:43:34;94951.38;;;22.31;71.69
61674;BME280;47573;43.832;5.974;2023-02-23T01:50:19;94949.66;;;22.25;71.78
61674;BME280;47573;43.832;5.974;2023-02-23T01:57:01;94952.78;;;22.17;72.32
61674;BME280;47573;43.832;5.974;2023-02-23T02:03:44;94949.91;;;22.07;72.53
61674;BME280;47573;43.832;5.974;2023-02-23T02:10:27;94944.38;;;22.02;72.62
61674;BME280;47573;43.832;5.974;2023-02-23T02:17:21;94937.19;;;21.96;72.38
61674;BME280;47573;43.832;5.974;2023-02-23T02:24:42;94929.44;;;21.88;72.47
61674;BME280;47573;43.832;5.974;2023-02-23T02:31:48;94918.25;;;21.85;72.41
61674;BME280;47573;43.832;5.974;2023-02-23T02:38:40;94911.31;;;21.77;72.29
61674;BME280;47573;43.832;5.974;2023-02-23T02:45:27;94915.22;;;21.70;72.36
61674;BME280;47573;43.832;5.974;2023-02-23T02:52:14;94911.09;;;21.67;72.26
61674;BME280;47573;43.832;5.974;2023-02-23T02:58:58;94918.34;;;21.61;72.66
61674;BME280;47573;43.832;5.974;2023-02-23T03:05:41;94918.03;;;21.58;72.42
61674;BME280;47573;43.832;5.974;2023-02-23T03:12:30;94913.56;;;21.52;72.21
61674;BME280;47573;43.832;5.974;2023-02-23T03:19:18;94906.38;;;21.46;72.22
61674;BME280;47573;43.832;5.974;2023-02-23T03:26:07;94897.56;;;21.39;72.28
61674;BME280;47573;43.832;5.974;2023-02-23T03:32:51;94882.22;;;21.33;72.26
61674;BME280;47573;43.832;5.974;2023-02-23T03:39:39;94879.50;;;21.33;72.10
61674;BME280;47573;43.832;5.974;2023-02-23T03:46:20;94895.69;;;21.28;72.34
61674;BME280;47573;43.832;5.974;2023-02-23T03:53:03;94886.97;;;21.26;72.15
61674;BME280;47573;43.832;5.974;2023-02-23T03:59:51;94886.97;;;21.26;71.57
61674;BME280;47573;43.832;5.974;2023-02-23T04:06:38;94894.47;;;21.19;71.71
61674;BME280;47573;43.832;5.974;2023-02-23T04:13:23;94884.91;;;21.16;71.30
61674;BME280;47573;43.832;5.974;2023-02-23T04:20:09;94893.50;;;21.13;71.20
61674;BME280;47573;43.832;5.974;2023-02-23T04:26:50;94888.81;;;21.09;71.48
61674;BME280;47573;43.832;5.974;2023-02-23T04:33:30;94898.03;;;21.08;71.12
61674;BME280;47573;43.832;5.974;2023-02-23T04:40:12;94890.34;;;21.05;71.42
61674;BME280;47573;43.832;5.974;2023-02-23T04:46:53;94884.81;;;21.00;71.19
61674;BME280;47573;43.832;5.974;2023-02-23T04:53:37;94880.94;;;20.96;71.20
61674;BME280;47573;43.832;5.974;2023-02-23T05:00:19;94872.19;;;20.94;71.16
61674;BME280;47573;43.832;5.974;2023-02-23T05:07:00;94867.81;;;20.93;71.05
61674;BME280;47573;43.832;5.974;2023-02-23T05:13:40;94880.22;;;20.89;71.16
61674;BME280;47573;43.832;5.974;2023-02-23T05:20:22;94868.22;;;20.84;70.96
61674;BME280;47573;43.832;5.974;2023-02-23T05:27:03;94871.16;;;20.83;71.14
61674;BME280;47573;43.832;5.974;2023-02-23T05:33:43;94863.75;;;20.78;70.98
61674;BME280;47573;43.832;5.974;2023-02-23T05:40:25;94855.50;;;20.73;71.16
61674;BME280;47573;43.832;5.974;2023-02-23T05:47:05;94854.69;;;20.73;71.05
61674;BME280;47573;43.832;5.974;2023-02-23T05:53:46;94873.69;;;20.73;70.79
61674;BME280;47573;43.832;5.974;2023-02-23T06:00:28;94868.97;;;20.68;70.89
61674;BME280;47573;43.832;5.974;2023-02-23T06:07:08;94871.69;;;20.57;71.33
61674;BME280;47573;43.832;5.974;2023-02-23T06:13:49;94874.19;;;20.58;71.00
61674;BME280;47573;43.832;5.974;2023-02-23T06:20:30;94867.59;;;20.54;71.03
61674;BME280;47573;43.832;5.974;2023-02-23T06:27:11;94874.31;;;20.52;70.87
61674;BME280;47573;43.832;5.974;2023-02-23T06:33:51;94876.69;;;20.48;70.78
61674;BME280;47573;43.832;5.974;2023-02-23T06:40:33;94886.94;;;20.46;70.82
61674;BME280;47573;43.832;5.974;2023-02-23T06:47:14;94878.19;;;20.44;70.73
61674;BME280;47573;43.832;5.974;2023-02-23T06:53:54;94876.22;;;20.40;70.85
61674;BME280;47573;43.832;5.974;2023-02-23T07:00:37;94890.47;;;20.35;70.77
61674;BME280;47573;43.832;5.974;2023-02-23T07:07:17;94904.63;;;20.37;70.48
61674;BME280;47573;43.832;5.974;2023-02-23T07:13:58;94902.94;;;20.36;70.42
61674;BME280;47573;43.832;5.974;2023-02-23T07:20:40;94894.72;;;20.31;70.68
61674;BME280;47573;43.832;5.974;2023-02-23T07:27:21;94894.72;;;20.31;70.53
61674;BME280;47573;43.832;5.974;2023-02-23T07:34:01;94907.19;;;20.32;70.51
61674;BME280;47573;43.832;5.974;2023-02-23T07:40:44;94919.69;;;20.56;70.43
61674;BME280;47573;43.832;5.974;2023-02-23T07:47:24;94922.72;;;20.83;70.59
61674;BME280;47573;43.832;5.974;2023-02-23T07:54:05;94927.16;;;21.01;70.41
61674;BME280;47573;43.832;5.974;2023-02-23T08:00:47;94921.81;;;21.17;70.80
61674;BME280;47573;43.832;5.974;2023-02-23T08:07:27;94929.31;;;21.10;71.25
61674;BME280;47573;43.832;5.974;2023-02-23T08:14:08;94934.69;;;21.22;71.23
61674;BME280;47573;43.832;5.974;2023-02-23T08:20:49;94931.59;;;21.30;70.89
61674;BME280;47573;43.832;5.974;2023-02-23T08:27:36;94937.00;;;21.30;71.41
61674;BME280;47573;43.832;5.974;2023-02-23T08:34:17;94940.03;;;21.45;71.25
61674;BME280;47573;43.832;5.974;2023-02-23T08:41:00;94949.84;;;21.46;71.28
61674;BME280;47573;43.832;5.974;2023-02-23T08:47:40;94956.53;;;21.55;71.61
61674;BME280;47573;43.832;5.974;2023-02-23T08:54:21;94952.91;;;21.49;71.89
61674;BME280;47573;43.832;5.974;2023-02-23T09:01:03;94947.78;;;21.53;71.81
61674;BME280;47573;43.832;5.974;2023-02-23T09:07:44;94964.28;;;21.63;71.72
61674;BME280;47573;43.832;5.974;2023-02-23T09:14:25;94967.56;;;21.65;72.29
61674;BME280;47573;43.832;5.974;2023-02-23T09:21:13;94969.81;;;21.68;72.31
61674;BME280;47573;43.832;5.974;2023-02-23T09:27:55;94980.19;;;21.71;72.48
61674;BME280;47573;43.832;5.974;2023-02-23T09:34:36;94974.53;;;21.73;72.50
61674;BME280;47573;43.832;5.974;2023-02-23T09:41:48;94978.16;;;21.78;72.53
61674;BME280;47573;43.832;5.974;2023-02-23T09:48:30;94983.84;;;21.77;72.61
61674;BME280;47573;43.832;5.974;2023-02-23T09:55:13;94978.66;;;21.75;72.76
61674;BME280;47573;43.832;5.974;2023-02-23T10:02:04;94985.72;;;21.76;72.80
61674;BME280;47573;43.832;5.974;2023-02-23T10:09:07;94990.69;;;21.79;72.84
61674;BME280;47573;43.832;5.974;2023-02-23T10:15:55;94992.31;;;21.80;73.22
61674;BME280;47573;43.832;5.974;2023-02-23T10:22:40;94989.25;;;21.88;72.41
61674;BME280;47573;43.832;5.974;2023-02-23T10:29:25;94987.50;;;21.82;73.07
61674;BME280;47573;43.832;5.974;2023-02-23T10:36:12;94982.19;;;21.87;72.70
61674;BME280;47573;43.832;5.974;2023-02-23T10:42:57;94982.81;;;21.94;72.54
61674;BME280;47573;43.832;5.974;2023-02-23T10:49:42;94977.41;;;21.94;72.29
61674;BME280;47573;43.832;5.974;2023-02-23T10:56:23;94974.28;;;22.02;71.08
61674;BME280;47573;43.832;5.974;2023-02-23T11:03:17;94979.91;;;22.12;73.01
61674;BME280;47573;43.832;5.974;2023-02-23T11:09:58;94972.13;;;22.04;73.71
61674;BME280;47573;43.832;5.974;2023-02-23T11:16:38;94965.06;;;22.03;74.01
61674;BME280;47573;43.832;5.974;2023-02-23T11:41:20;94945.03;;;22.26;71.73
61674;BME280;47573;43.832;5.974;2023-02-23T12:05:52;94917.59;;;22.27;70.53
61674;BME280;47573;43.832;5.974;2023-02-23T12:12:42;94909.00;;;22.35;71.00
61674;BME280;47573;43.832;5.974;2023-02-23T12:19:26;94904.09;;;22.32;71.15
61674;BME280;47573;43.832;5.974;2023-02-23T12:26:13;94907.69;;;22.38;70.91
61674;BME280;47573;43.832;5.974;2023-02-23T12:32:57;94908.53;;;22.38;70.77
61674;BME280;47573;43.832;5.974;2023-02-23T12:39:42;94880.75;;;22.36;71.04
61674;BME280;47573;43.832;5.974;2023-02-23T12:46:30;94873.09;;;22.33;71.00
61674;BME280;47573;43.832;5.974;2023-02-23T12:53:19;94871.59;;;22.42;70.60
61674;BME280;47573;43.832;5.974;2023-02-23T13:00:25;94864.84;;;22.45;70.04
61674;BME280;47573;43.832;5.974;2023-02-23T13:07:15;94855.28;;;22.42;69.70
61674;BME280;47573;43.832;5.974;2023-02-23T13:14:01;94849.09;;;22.47;70.65
61674;BME280;47573;43.832;5.974;2023-02-23T13:20:46;94853.13;;;22.45;71.49
61674;BME280;47573;43.832;5.974;2023-02-23T13:27:34;94847.69;;;22.45;71.81
61674;BME280;47573;43.832;5.974;2023-02-23T13:34:25;94836.31;;;22.48;72.54
61674;BME280;47573;43.832;5.974;2023-02-23T13:41:10;94835.75;;;22.46;72.57
61674;BME280;47573;43.832;5.974;2023-02-23T13:47:56;94849.47;;;22.56;71.17
61674;BME280;47573;43.832;5.974;2023-02-23T13:54:51;94844.53;;;22.53;73.24
61674;BME280;47573;43.832;5.974;2023-02-23T14:01:35;94843.06;;;22.62;73.80
61674;BME280;47573;43.832;5.974;2023-02-23T14:08:22;94836.53;;;22.63;74.05
61674;BME280;47573;43.832;5.974;2023-02-23T14:15:39;94825.91;;;22.61;74.11
61674;BME280;47573;43.832;5.974;2023-02-23T14:22:20;94820.78;;;22.65;74.15
61674;BME280;47573;43.832;5.974;2023-02-23T14:29:20;94815.31;;;22.65;73.84
61674;BME280;47573;43.832;5.974;2023-02-23T14:36:28;94817.00;;;22.66;74.01
61674;BME280;47573;43.832;5.974;2023-02-23T14:43:40;94821.22;;;22.78;73.99
61674;BME280;47573;43.832;5.974;2023-02-23T15:04:06;94807.97;;;22.44;73.48
61674;BME280;47573;43.832;5.974;2023-02-23T15:10:49;94811.16;;;21.69;62.39
61674;BME280;47573;43.832;5.974;2023-02-23T15:17:32;94813.88;;;22.02;64.42
61674;BME280;47573;43.832;5.974;2023-02-23T15:24:14;94802.81;;;22.64;64.97
61674;BME280;47573;43.832;5.974;2023-02-23T15:30:58;94806.94;;;22.66;66.10
61674;BME280;47573;43.832;5.974;2023-02-23T15:37:40;94809.88;;;22.65;66.48
61674;BME280;47573;43.832;5.974;2023-02-23T15:44:23;94815.16;;;22.71;66.64
61674;BME280;47573;43.832;5.974;2023-02-23T15:51:05;94808.38;;;22.74;67.47
61674;BME280;47573;43.832;5.974;2023-02-23T15:57:52;94804.06;;;22.78;67.26
61674;BME280;47573;43.832;5.974;2023-02-23T16:04:37;94810.84;;;22.75;67.63
61674;BME280;47573;43.832;5.974;2023-02-23T16:11:18;94814.97;;;22.78;68.55
61674;BME280;47573;43.832;5.974;2023-02-23T16:18:01;94808.44;;;22.79;68.27
61674;BME280;47573;43.832;5.974;2023-02-23T16:24:43;94816.09;;;22.82;68.53
61674;BME280;47573;43.832;5.974;2023-02-23T16:31:39;94804.63;;;22.80;68.89
61674;BME280;47573;43.832;5.974;2023-02-23T16:38:23;94817.94;;;22.76;68.70
61674;BME280;47573;43.832;5.974;2023-02-23T16:45:11;94820.97;;;22.80;69.30
61674;BME280;47573;43.832;5.974;2023-02-23T16:51:53;94824.53;;;22.80;69.93
61674;BME280;47573;43.832;5.974;2023-02-23T16:58:33;94822.94;;;22.84;69.62
61674;BME280;47573;43.832;5.974;2023-02-23T17:05:17;94819.91;;;22.81;70.20
61674;BME280;47573;43.832;5.974;2023-02-23T17:11:58;94832.16;;;22.83;70.11
61674;BME280;47573;43.832;5.974;2023-02-23T17:18:39;94833.50;;;22.81;70.31
61674;BME280;47573;43.832;5.974;2023-02-23T17:25:22;94830.16;;;22.74;71.13
61674;BME280;47573;43.832;5.974;2023-02-23T17:32:02;94828.06;;;22.81;70.56
61674;BME280;47573;43.832;5.974;2023-02-23T17:38:43;94836.72;;;22.78;71.41
61674;BME280;47573;43.832;5.974;2023-02-23T17:45:26;94839.84;;;22.86;71.07
61674;BME280;47573;43.832;5.974;2023-02-23T17:52:07;94836.84;;;22.88;71.31
61674;BME280;47573;43.832;5.974;2023-02-23T17:58:47;94841.66;;;23.02;71.22
61674;BME280;47573;43.832;5.974;2023-02-23T18:05:29;94848.03;;;23.13;70.83
61674;BME280;47573;43.832;5.974;2023-02-23T18:12:09;94847.28;;;23.17;71.28
61674;BME280;47573;43.832;5.974;2023-02-23T18:18:50;94846.44;;;23.17;71.39
61674;BME280;47573;43.832;5.974;2023-02-23T18:25:32;94847.28;;;23.17;71.52
61674;BME280;47573;43.832;5.974;2023-02-23T18:32:12;94853.56;;;23.18;71.60
61674;BME280;47573;43.832;5.974;2023-02-23T18:38:53;94855.72;;;23.16;71.80
61674;BME280;47573;43.832;5.974;2023-02-23T18:45:36;94850.75;;;23.13;71.90
61674;BME280;47573;43.832;5.974;2023-02-23T18:52:17;94854.44;;;23.02;71.88
61674;BME280;47573;43.832;5.974;2023-02-23T18:58:59;94854.50;;;23.07;72.33
61674;BME280;47573;43.832;5.974;2023-02-23T19:05:43;94841.41;;;23.04;72.45
61674;BME280;47573;43.832;5.974;2023-02-23T19:12:25;94834.31;;;23.03;72.82
61674;BME280;47573;43.832;5.974;2023-02-23T19:19:06;94833.81;;;23.06;72.47
61674;BME280;47573;43.832;5.974;2023-02-23T19:25:49;94837.59;;;23.05;73.02
61674;BME280;47573;43.832;5.974;2023-02-23T19:32:29;94821.56;;;23.08;73.00
61674;BME280;47573;43.832;5.974;2023-02-23T19:39:10;94827.84;;;23.09;72.86
61674;BME280;47573;43.832;5.974;2023-02-23T19:45:52;94831.41;;;23.09;73.14
61674;BME280;47573;43.832;5.974;2023-02-23T19:52:32;94830.00;;;23.07;73.41
61674;BME280;47573;43.832;5.974;2023-02-23T19:59:13;94827.00;;;23.08;73.48
61674;BME280;47573;43.832;5.974;2023-02-23T20:05:55;94818.63;;;23.10;73.76
61674;BME280;47573;43.832;5.974;2023-02-23T20:12:36;94834.50;;;23.18;73.52
61674;BME280;47573;43.832;5.974;2023-02-23T20:19:16;94837.53;;;23.22;74.05
61674;BME280;47573;43.832;5.974;2023-02-23T20:25:58;94840.31;;;23.27;73.99
61674;BME280;47573;43.832;5.974;2023-02-23T20:32:39;94839.06;;;23.34;74.10
61674;BME280;47573;43.832;5.974;2023-02-23T20:39:20;94836.06;;;23.36;74.22
61674;BME280;47573;43.832;5.974;2023-02-23T20:46:02;94851.34;;;23.37;74.19
61674;BME280;47573;43.832;5.974;2023-02-23T20:52:43;94846.72;;;23.37;73.86
61674;BME280;47573;43.832;5.974;2023-02-23T20:59:24;94845.06;;;23.36;74.17
61674;BME280;47573;43.832;5.974;2023-02-23T21:06:06;94843.94;;;23.32;74.36
61674;BME280;47573;43.832;5.974;2023-02-23T21:12:47;94842.25;;;23.31;74.11
61674;BME280;47573;43.832;5.974;2023-02-23T21:19:27;94844.94;;;23.26;74.33
61674;BME280;47573;43.832;5.974;2023-02-23T21:26:10;94857.47;;;23.27;74.26
61674;BME280;47573;43.832;5.974;2023-02-23T21:32:51;94851.78;;;23.29;74.36
61674;BME280;47573;43.832;5.974;2023-02-23T21:39:32;94847.69;;;23.31;73.76
61674;BME280;47573;43.832;5.974;2023-02-23T21:46:15;94853.66;;;23.28;74.07
61674;BME280;47573;43.832;5.974;2023-02-23T21:52:55;94854.16;;;23.25;74.38
61674;BME280;47573;43.832;5.974;2023-02-23T21:59:36;94862.91;;;23.27;74.57
61674;BME280;47573;43.832;5.974;2023-02-23T22:06:19;94855.81;;;23.26;74.03
61674;BME280;47573;43.832;5.974;2023-02-23T22:13:00;94861.78;;;23.23;74.49
61674;BME280;47573;43.832;5.974;2023-02-23T22:19:41;94849.25;;;23.22;74.46
61674;BME280;47573;43.832;5.974;2023-02-23T22:26:22;94844.38;;;23.24;74.33
61674;BME280;47573;43.832;5.974;2023-02-23T22:33:03;94832.91;;;23.22;74.07
61674;BME280;47573;43.832;5.974;2023-02-23T22:39:44;94843.72;;;23.17;74.72
61674;BME280;47573;43.832;5.974;2023-02-23T22:46:25;94837.72;;;23.15;74.54
61674;BME280;47573;43.832;5.974;2023-02-23T22:53:06;94829.09;;;23.23;73.96
61674;BME280;47573;43.832;5.974;2023-02-23T22:59:47;94817.41;;;23.23;73.93
61674;BME280;47573;43.832;5.974;2023-02-23T23:06:29;94822.00;;;23.22;73.99
61674;BME280;47573;43.832;5.974;2023-02-23T23:13:09;94828.06;;;23.29;73.62
61674;BME280;47573;43.832;5.974;2023-02-23T23:19:50;94834.81;;;23.00;73.10
61674;BME280;47573;43.832;5.974;2023-02-23T23:26:34;94828.19;;;22.91;72.29
61674;BME280;47573;43.832;5.974;2023-02-23T23:33:14;94817.19;;;22.81;73.09
61674;BME280;47573;43.832;5.974;2023-02-23T23:39:55;94818.78;;;22.77;72.67
61674;BME280;47573;43.832;5.974;2023-02-23T23:46:38;94824.22;;;22.77;72.19
61674;BME280;47573;43.832;5.974;2023-02-23T23:53:19;94824.59;;;22.64;72.85
61674;BME280;47573;43.832;5.974;2023-02-23T23:59:59;94821.44;;;22.55;72.58
